createdAt,value
2023-03-05T00:02:07.036Z,26.52
2023-03-05T00:04:34.121Z,25.73
2023-03-05T00:07:00.942Z,24.95
2023-03-05T00:09:27.706Z,24.90
2023-03-05T00:11:54.357Z,25.75
2023-03-05T00:14:21.034Z,26.15
2023-03-05T00:16:47.980Z,26.67
2023-03-05T00:19:14.793Z,25.38
2023-03-05T00:21:42.260Z,24.77
2023-03-05T00:24:13.336Z,26.67
2023-03-05T00:26:40.487Z,25.80
2023-03-05T00:29:09.083Z,25.80
2023-03-05T00:31:37.844Z,26.38
2023-03-05T00:34:11.453Z,24.80
2023-03-05T00:36:47.616Z,26.05
2023-03-05T00:39:14.877Z,26.35
2023-03-05T00:41:41.716Z,24.40
2023-03-05T00:44:08.962Z,24.50
2023-03-05T00:46:36.596Z,26.42
2023-03-05T00:49:04.184Z,23.98
2023-03-05T00:51:31.047Z,25.25
2023-03-05T00:53:57.899Z,26.05
2023-03-05T00:56:24.809Z,25.02
2023-03-05T00:58:53.200Z,26.15
2023-03-05T01:01:20.123Z,25.45
2023-03-05T01:03:46.861Z,24.27
2023-03-05T01:06:16.452Z,24.48
2023-03-05T01:08:44.093Z,24.67
2023-03-05T01:11:11.625Z,24.13
2023-03-05T01:13:41.578Z,23.88
2023-03-05T01:16:09.005Z,25.88
2023-03-05T01:18:36.984Z,24.48
2023-03-05T01:21:04.065Z,24.65
2023-03-05T01:23:30.750Z,24.55
2023-03-05T01:25:59.101Z,24.77
2023-03-05T01:28:26.691Z,22.77
2023-03-05T01:30:53.474Z,23.90
2023-03-05T01:33:20.506Z,25.58
2023-03-05T01:35:48.821Z,23.42
2023-03-05T01:38:16.335Z,25.40
2023-03-05T01:40:43.854Z,25.13
2023-03-05T01:43:13.612Z,22.92
2023-03-05T01:46:18.786Z,24.92
2023-03-05T01:48:50.173Z,25.90
2023-03-05T01:51:19.976Z,23.70
2023-03-05T01:53:47.655Z,24.30
2023-03-05T01:56:15.582Z,24.27
2023-03-05T01:58:42.525Z,25.25
2023-03-05T02:01:09.971Z,24.45
2023-03-05T02:03:37.768Z,24.77
2023-03-05T02:06:05.094Z,25.30
2023-03-05T02:08:36.405Z,26.30
2023-03-05T02:11:04.068Z,24.30
2023-03-05T02:13:33.856Z,26.30
2023-03-05T02:16:03.201Z,25.52
2023-03-05T02:18:30.125Z,23.95
2023-03-05T02:20:56.857Z,23.20
2023-03-05T02:23:26.417Z,25.45
2023-03-05T02:25:53.574Z,24.80
2023-03-05T02:28:26.195Z,24.88
2023-03-05T02:30:53.250Z,24.52
2023-03-05T02:33:20.473Z,25.55
2023-03-05T02:35:47.627Z,24.25
2023-03-05T02:38:17.624Z,24.33
2023-03-05T02:40:44.685Z,25.05
2023-03-05T02:43:11.901Z,26.70
2023-03-05T02:45:39.313Z,24.83
2023-03-05T02:48:06.427Z,25.50
2023-03-05T02:50:34.226Z,26.02
2023-03-05T02:53:01.139Z,26.35
2023-03-05T02:55:28.130Z,25.25
2023-03-05T02:57:55.246Z,26.27
2023-03-05T03:00:22.168Z,24.58
2023-03-05T03:02:49.244Z,27.77
2023-03-05T03:05:16.469Z,25.60
2023-03-05T03:07:43.273Z,25.20
2023-03-05T03:10:10.825Z,26.27
2023-03-05T03:12:39.114Z,24.58
2023-03-05T03:15:07.376Z,26.05
2023-03-05T03:17:36.121Z,26.35
2023-03-05T03:20:05.199Z,26.88
2023-03-05T03:22:31.974Z,25.85
2023-03-05T03:24:58.720Z,26.52
2023-03-05T03:27:25.468Z,25.40
2023-03-05T03:29:52.247Z,25.67
2023-03-05T03:32:19.163Z,26.63
2023-03-05T03:34:48.086Z,26.02
2023-03-05T03:37:15.242Z,26.30
2023-03-05T03:39:41.979Z,24.92
2023-03-05T03:42:08.758Z,25.95
2023-03-05T03:44:35.511Z,26.95
2023-03-05T03:47:02.637Z,25.73
2023-03-05T03:49:29.541Z,25.90
2023-03-05T03:51:57.572Z,25.52
2023-03-05T03:54:25.205Z,25.48
2023-03-05T03:56:52.752Z,27.02
2023-03-05T03:59:19.703Z,31.15
2023-03-05T04:01:47.205Z,26.30
2023-03-05T04:04:14.162Z,25.48
2023-03-05T04:06:41.359Z,26.20
2023-03-05T04:09:08.756Z,26.58
2023-03-05T04:11:36.758Z,26.60
2023-03-05T04:14:07.309Z,27.27
2023-03-05T04:16:34.120Z,26.48
2023-03-05T04:19:00.891Z,27.75
2023-03-05T04:21:27.679Z,26.75
2023-03-05T04:23:54.528Z,27.25
2023-03-05T04:26:21.256Z,27.30
2023-03-05T04:28:48.327Z,28.25
2023-03-05T04:31:17.463Z,27.23
2023-03-05T04:33:44.243Z,29.73
2023-03-05T04:36:10.928Z,26.00
2023-03-05T04:38:37.700Z,27.75
2023-03-05T04:41:04.565Z,29.33
2023-03-05T04:43:31.407Z,27.60
2023-03-05T04:45:58.267Z,28.48
2023-03-05T04:48:26.260Z,25.02
2023-03-05T04:50:53.012Z,28.02
2023-03-05T04:53:19.700Z,26.27
2023-03-05T04:55:46.365Z,25.52
2023-03-05T04:58:13.057Z,24.85
2023-03-05T05:00:39.713Z,25.08
2023-03-05T05:03:06.555Z,25.40
2023-03-05T05:05:33.319Z,25.95
2023-03-05T05:08:00.029Z,25.52
2023-03-05T05:10:27.365Z,24.08
2023-03-05T05:12:54.288Z,24.25
2023-03-05T05:15:21.295Z,23.20
2023-03-05T05:17:48.368Z,24.80
2023-03-05T05:20:16.225Z,22.52
2023-03-05T05:22:43.951Z,23.67
2023-03-05T05:25:11.524Z,23.83
2023-03-05T05:27:40.083Z,29.50
2023-03-05T05:30:07.847Z,27.52
2023-03-05T05:32:34.824Z,24.77
2023-03-05T05:35:01.643Z,25.75
2023-03-05T05:37:30.146Z,24.85
2023-03-05T05:39:57.084Z,24.27
2023-03-05T05:42:27.713Z,23.73
2023-03-05T05:44:55.666Z,23.67
2023-03-05T05:47:22.433Z,24.23
2023-03-05T05:49:49.251Z,24.75
2023-03-05T05:52:16.136Z,24.17
2023-03-05T05:54:43.484Z,21.83
2023-03-05T05:57:10.324Z,23.35
2023-03-05T05:59:38.228Z,21.15
2023-03-05T06:02:05.631Z,22.42
2023-03-05T06:04:32.497Z,23.27
2023-03-05T06:06:59.972Z,23.33
2023-03-05T06:09:27.240Z,22.65
2023-03-05T06:11:54.115Z,23.88
2023-03-05T06:14:21.142Z,22.23
2023-03-05T06:16:47.910Z,23.98
2023-03-05T06:19:16.141Z,25.08
2023-03-05T06:21:43.500Z,27.30
2023-03-05T06:24:11.582Z,24.75
2023-03-05T06:26:38.612Z,22.65
2023-03-05T06:29:05.506Z,23.77
2023-03-05T06:31:32.811Z,22.13
2023-03-05T06:34:03.949Z,24.58
2023-03-05T06:36:31.275Z,23.27
2023-03-05T06:38:58.484Z,22.08
2023-03-05T06:41:28.294Z,21.38
2023-03-05T06:43:55.654Z,22.60
2023-03-05T06:46:30.864Z,22.60
2023-03-05T06:48:59.845Z,21.33
2023-03-05T06:51:36.811Z,20.10
2023-03-05T06:54:07.027Z,20.02
2023-03-05T06:56:36.368Z,20.80
2023-03-05T06:59:03.161Z,24.95
2023-03-05T07:01:29.954Z,26.25
2023-03-05T07:04:00.637Z,23.67
2023-03-05T07:06:27.804Z,25.33
2023-03-05T07:08:59.184Z,22.67
2023-03-05T07:11:26.011Z,22.60
2023-03-05T07:13:52.988Z,22.58
2023-03-05T07:16:26.623Z,23.27
2023-03-05T07:18:54.645Z,23.42
2023-03-05T07:21:24.205Z,22.60
2023-03-05T07:23:52.987Z,23.08
2023-03-05T07:26:20.171Z,22.08
2023-03-05T07:28:47.123Z,23.70
2023-03-05T07:31:19.956Z,24.80
2023-03-05T07:33:48.442Z,24.33
2023-03-05T07:36:15.909Z,23.38
2023-03-05T07:38:42.937Z,21.90
2023-03-05T07:41:12.529Z,24.58
2023-03-05T07:43:39.461Z,22.23
2023-03-05T07:46:08.628Z,24.42
2023-03-05T07:48:35.461Z,25.00
2023-03-05T07:51:03.525Z,24.98
2023-03-05T07:53:30.463Z,24.27
2023-03-05T07:55:57.289Z,24.23
2023-03-05T07:58:24.294Z,24.20
2023-03-05T08:00:50.996Z,24.15
2023-03-05T08:03:18.069Z,25.08
2023-03-05T08:05:45.453Z,26.00
2023-03-05T08:08:12.213Z,23.90
2023-03-05T08:10:38.959Z,32.92
2023-03-05T08:13:06.460Z,28.17
2023-03-05T08:15:33.398Z,23.52
2023-03-05T08:18:00.390Z,23.98
2023-03-05T08:20:27.103Z,22.73
2023-03-05T08:22:53.975Z,23.42
2023-03-05T08:25:20.703Z,24.70
2023-03-05T08:27:48.208Z,26.98
2023-03-05T08:30:18.148Z,26.75
2023-03-05T08:32:45.065Z,23.90
2023-03-05T08:35:12.323Z,23.92
2023-03-05T08:37:39.213Z,30.83
2023-03-05T08:40:06.776Z,31.05
2023-03-05T08:42:33.456Z,25.23
2023-03-05T08:45:00.238Z,24.40
2023-03-05T08:47:28.219Z,31.83
2023-03-05T08:49:57.336Z,44.75
2023-03-05T08:52:25.477Z,36.58
2023-03-05T08:54:52.313Z,27.65
2023-03-05T08:57:19.043Z,26.40
2023-03-05T08:59:45.739Z,22.42
2023-03-05T09:02:13.536Z,25.05
2023-03-05T09:04:40.705Z,24.48
2023-03-05T09:07:07.634Z,25.63
2023-03-05T09:09:34.396Z,23.73
2023-03-05T09:12:01.587Z,22.75
2023-03-05T09:14:28.978Z,23.90
2023-03-05T09:16:56.652Z,22.45
2023-03-05T09:19:23.905Z,28.05
2023-03-05T09:21:50.671Z,26.95
2023-03-05T09:24:17.357Z,23.65
2023-03-05T09:26:44.208Z,22.98
2023-03-05T09:29:12.442Z,26.20
2023-03-05T09:31:39.910Z,25.95
2023-03-05T09:34:08.221Z,23.63
2023-03-05T09:36:35.429Z,25.00
2023-03-05T09:39:02.498Z,26.17
2023-03-05T09:41:54.151Z,22.83
2023-03-05T09:44:45.181Z,21.23
2023-03-05T09:47:17.559Z,24.30
2023-03-05T09:50:18.485Z,27.23
2023-03-05T09:52:55.427Z,24.88
2023-03-05T09:55:27.496Z,22.00
2023-03-05T09:57:58.375Z,20.08
2023-03-05T10:00:34.608Z,19.30
2023-03-05T10:03:05.971Z,21.00
2023-03-05T10:06:03.657Z,20.67
2023-03-05T10:08:45.289Z,21.10
2023-03-05T10:11:26.239Z,21.23
2023-03-05T10:13:52.968Z,23.58
2023-03-05T10:16:49.004Z,24.40
2023-03-05T10:19:29.014Z,21.20
2023-03-05T10:22:14.893Z,25.23
2023-03-05T10:25:04.921Z,22.83
2023-03-05T10:27:54.288Z,19.73
2023-03-05T10:30:58.466Z,20.98
2023-03-05T10:33:45.908Z,19.80
2023-03-05T10:36:20.726Z,22.60
2023-03-05T10:39:02.068Z,24.40
2023-03-05T10:41:56.546Z,26.95
2023-03-05T10:44:44.624Z,26.85
2023-03-05T10:47:30.262Z,20.30
2023-03-05T10:49:58.719Z,22.05
2023-03-05T10:52:34.959Z,22.58
2023-03-05T10:55:01.999Z,21.73
2023-03-05T10:57:31.445Z,20.63
2023-03-05T11:00:01.246Z,24.70
2023-03-05T11:02:28.198Z,20.63
2023-03-05T11:04:54.958Z,20.13
2023-03-05T11:07:22.747Z,21.13
2023-03-05T11:10:14.040Z,22.25
2023-03-05T11:12:40.894Z,21.17
2023-03-05T11:15:26.438Z,22.30
2023-03-05T11:18:21.094Z,20.05
2023-03-05T11:20:48.354Z,23.00
2023-03-05T11:23:26.358Z,23.00
2023-03-05T11:25:57.525Z,20.15
2023-03-05T11:28:36.552Z,24.65
2023-03-05T11:31:24.380Z,21.00
2023-03-05T11:33:58.519Z,20.42
2023-03-05T11:36:28.863Z,25.55
2023-03-05T11:38:59.645Z,23.50
2023-03-05T11:41:49.260Z,19.98
2023-03-05T11:44:38.733Z,19.13
2023-03-05T11:47:37.541Z,21.95
2023-03-05T11:50:16.316Z,21.75
2023-03-05T11:52:47.347Z,21.02
2023-03-05T11:55:50.177Z,24.05
2023-03-05T11:58:37.442Z,19.48
2023-03-05T12:01:13.584Z,21.10
2023-03-05T12:03:40.487Z,20.45
2023-03-05T12:06:13.309Z,20.05
2023-03-05T12:08:46.554Z,21.10
2023-03-05T12:11:22.790Z,20.25
2023-03-05T12:13:54.539Z,19.45
2023-03-05T12:16:44.422Z,19.58
2023-03-05T12:19:30.698Z,21.27
2023-03-05T12:21:58.011Z,19.50
2023-03-05T12:24:27.516Z,21.42
2023-03-05T12:27:04.119Z,19.85
2023-03-05T12:29:42.134Z,20.30
2023-03-05T12:32:31.482Z,18.08
2023-03-05T12:34:59.933Z,22.60
2023-03-05T12:37:27.202Z,17.95
2023-03-05T12:40:19.235Z,16.85
2023-03-05T12:43:03.686Z,18.38
2023-03-05T12:45:33.968Z,16.63
2023-03-05T12:48:00.623Z,19.50
2023-03-05T12:50:27.379Z,14.25
2023-03-05T12:52:56.982Z,14.75
2023-03-05T12:55:24.694Z,14.65
2023-03-05T12:58:13.645Z,13.77
2023-03-05T13:00:57.804Z,13.35
2023-03-05T13:03:30.658Z,16.10
2023-03-05T13:06:08.303Z,15.63
2023-03-05T13:08:37.245Z,17.60
2023-03-05T13:11:20.585Z,16.20
2023-03-05T13:13:48.486Z,15.48
2023-03-05T13:16:22.499Z,16.30
2023-03-05T13:18:51.059Z,17.10
2023-03-05T13:21:20.491Z,16.00
2023-03-05T13:23:50.255Z,16.77
2023-03-05T13:26:19.745Z,14.80
2023-03-05T13:29:05.712Z,14.20
2023-03-05T13:31:35.127Z,14.10
2023-03-05T13:34:22.128Z,14.13
2023-03-05T13:37:03.711Z,14.47
2023-03-05T13:39:44.124Z,13.53
2023-03-05T13:42:24.681Z,17.00
2023-03-05T13:44:59.910Z,16.20
2023-03-05T13:47:29.007Z,15.82
2023-03-05T13:50:00.740Z,17.17
2023-03-05T13:52:31.505Z,17.15
2023-03-05T13:55:00.266Z,14.73
2023-03-05T13:57:42.397Z,15.35
2023-03-05T14:00:38.904Z,15.98
2023-03-05T14:03:39.822Z,15.38
2023-03-05T14:06:19.725Z,16.35
2023-03-05T14:08:55.036Z,18.10
2023-03-05T14:11:23.107Z,14.65
2023-03-05T14:14:05.138Z,17.60
2023-03-05T14:16:34.812Z,17.63
2023-03-05T14:19:04.778Z,16.52
2023-03-05T14:21:52.075Z,22.13
2023-03-05T14:24:26.677Z,18.70
2023-03-05T14:26:58.259Z,16.17
2023-03-05T14:29:29.246Z,17.98
2023-03-05T14:32:05.775Z,17.15
2023-03-05T14:34:40.480Z,16.90
2023-03-05T14:37:31.419Z,18.30
2023-03-05T14:40:05.585Z,18.88
2023-03-05T14:42:39.227Z,17.98
2023-03-05T14:45:16.287Z,16.67
2023-03-05T14:47:43.178Z,20.60
2023-03-05T14:50:18.608Z,17.05
2023-03-05T14:52:47.200Z,17.55
2023-03-05T14:55:18.856Z,19.30
2023-03-05T14:57:46.179Z,22.00
2023-03-05T15:00:22.101Z,19.90
2023-03-05T15:02:49.829Z,18.42
2023-03-05T15:05:17.757Z,17.92
2023-03-05T15:07:45.109Z,16.73
2023-03-05T15:10:18.021Z,18.10
2023-03-05T15:12:46.191Z,18.67
2023-03-05T15:15:16.661Z,16.75
2023-03-05T15:17:48.803Z,18.10
2023-03-05T15:20:19.571Z,18.55
2023-03-05T15:22:47.195Z,18.65
2023-03-05T15:25:14.673Z,17.70
2023-03-05T15:27:41.668Z,20.15
2023-03-05T15:30:23.306Z,17.10
2023-03-05T15:32:51.263Z,18.63
2023-03-05T15:35:18.045Z,17.15
2023-03-05T15:37:44.824Z,18.52
2023-03-05T15:40:12.340Z,15.82
2023-03-05T15:42:39.346Z,21.42
2023-03-05T15:45:06.679Z,16.55
2023-03-05T15:47:33.669Z,16.40
2023-03-05T15:50:00.463Z,15.70
2023-03-05T15:52:27.180Z,16.27
2023-03-05T15:54:53.861Z,16.33
2023-03-05T15:57:24.671Z,15.30
2023-03-05T15:59:51.370Z,14.70
2023-03-05T16:02:18.801Z,13.95
2023-03-05T16:04:45.486Z,14.20
2023-03-05T16:07:14.798Z,14.77
2023-03-05T16:09:46.240Z,15.27
2023-03-05T16:12:19.810Z,12.93
2023-03-05T16:14:47.922Z,13.32
2023-03-05T16:17:16.017Z,13.50
2023-03-05T16:19:46.222Z,12.48
2023-03-05T16:22:13.174Z,12.35
2023-03-05T16:24:40.249Z,14.32
2023-03-05T16:27:06.983Z,14.52
2023-03-05T16:29:33.848Z,13.50
2023-03-05T16:32:04.001Z,14.27
2023-03-05T16:34:32.380Z,14.88
2023-03-05T16:37:01.079Z,12.70
2023-03-05T16:39:28.541Z,13.45
2023-03-05T16:41:55.667Z,14.05
2023-03-05T16:44:22.437Z,14.95
2023-03-05T16:46:53.380Z,13.85
2023-03-05T16:49:21.006Z,13.63
2023-03-05T16:51:48.190Z,16.58
2023-03-05T16:54:15.555Z,14.07
2023-03-05T16:56:42.342Z,15.55
2023-03-05T16:59:09.359Z,12.23
2023-03-05T17:01:36.396Z,13.80
2023-03-05T17:04:03.746Z,14.18
2023-03-05T17:06:31.839Z,13.38
2023-03-05T17:08:59.374Z,13.55
2023-03-05T17:11:26.413Z,13.20
2023-03-05T17:13:53.336Z,15.95
2023-03-05T17:16:20.222Z,12.30
2023-03-05T17:18:47.660Z,12.45
2023-03-05T17:21:15.716Z,13.55
2023-03-05T17:23:43.273Z,15.07
2023-03-05T17:26:12.870Z,13.95
2023-03-05T17:28:40.189Z,13.82
2023-03-05T17:31:07.277Z,14.10
2023-03-05T17:33:35.685Z,12.73
2023-03-05T17:36:03.552Z,12.82
2023-03-05T17:38:30.632Z,13.75
2023-03-05T17:40:57.552Z,11.80
2023-03-05T17:43:24.335Z,12.25
2023-03-05T17:45:51.401Z,10.70
2023-03-05T17:48:18.128Z,12.82
2023-03-05T17:50:45.170Z,29.75
2023-03-05T17:53:12.596Z,17.25
2023-03-05T17:55:39.791Z,13.60
2023-03-05T17:58:06.821Z,15.63
2023-03-05T18:00:34.175Z,16.67
2023-03-05T18:03:00.959Z,14.27
2023-03-05T18:05:28.626Z,13.07
2023-03-05T18:07:56.095Z,24.25
2023-03-05T18:10:25.815Z,18.92
2023-03-05T18:12:52.748Z,14.55
2023-03-05T18:15:20.989Z,15.93
2023-03-05T18:17:48.427Z,16.55
2023-03-05T18:20:36.875Z,16.60
2023-03-05T18:23:05.164Z,13.35
2023-03-05T18:25:32.311Z,11.98
2023-03-05T18:28:08.265Z,10.93
2023-03-05T18:30:36.692Z,12.35
2023-03-05T18:33:03.908Z,13.02
2023-03-05T18:35:32.333Z,12.40
2023-03-05T18:37:59.850Z,14.13
2023-03-05T18:40:29.351Z,10.52
2023-03-05T18:42:56.176Z,10.13
2023-03-05T18:45:23.768Z,10.40
2023-03-05T18:47:54.068Z,17.10
2023-03-05T18:50:23.437Z,10.73
2023-03-05T18:52:50.756Z,12.52
2023-03-05T18:55:20.194Z,11.70
2023-03-05T18:57:49.210Z,13.98
2023-03-05T19:00:18.487Z,13.20
2023-03-05T19:02:45.206Z,12.80
2023-03-05T19:05:14.260Z,12.68
2023-03-05T19:07:41.378Z,16.70
2023-03-05T19:10:09.941Z,15.77
2023-03-05T19:12:45.527Z,14.27
2023-03-05T19:15:13.735Z,15.68
2023-03-05T19:17:40.944Z,11.15
2023-03-05T19:20:10.939Z,12.35
2023-03-05T19:22:37.724Z,11.30
2023-03-05T19:25:05.298Z,14.73
2023-03-05T19:27:32.428Z,13.35
2023-03-05T19:30:00.218Z,12.63
2023-03-05T19:32:27.102Z,14.63
2023-03-05T19:34:57.780Z,15.30
2023-03-05T19:37:24.773Z,14.70
2023-03-05T19:39:52.172Z,14.82
2023-03-05T19:42:19.316Z,13.55
2023-03-05T19:44:46.031Z,11.88
2023-03-05T19:47:13.472Z,16.25
2023-03-05T19:49:40.337Z,17.75
2023-03-05T19:52:07.468Z,17.88
2023-03-05T19:54:35.026Z,15.45
2023-03-05T19:57:01.950Z,14.90
2023-03-05T19:59:28.980Z,13.70
2023-03-05T20:01:57.437Z,21.60
2023-03-05T20:04:25.146Z,16.08
2023-03-05T20:06:52.032Z,13.40
2023-03-05T20:09:19.511Z,14.30
2023-03-05T20:11:47.050Z,12.13
2023-03-05T20:14:14.650Z,12.00
2023-03-05T20:16:43.062Z,12.70
2023-03-05T20:19:16.897Z,11.52
2023-03-05T20:21:44.795Z,12.80
2023-03-05T20:24:16.068Z,11.98
2023-03-05T20:26:44.737Z,11.40
2023-03-05T20:29:12.502Z,12.50
2023-03-05T20:31:39.906Z,13.13
2023-03-05T20:34:09.943Z,13.32
2023-03-05T20:36:37.131Z,13.57
2023-03-05T20:39:05.636Z,13.57
2023-03-05T20:41:34.282Z,14.88
2023-03-05T20:44:01.320Z,13.45
2023-03-05T20:46:30.825Z,12.68
2023-03-05T20:49:00.258Z,12.65
2023-03-05T20:51:30.107Z,13.02
2023-03-05T20:54:02.439Z,15.20
2023-03-05T20:56:32.243Z,14.18
2023-03-05T20:59:01.098Z,13.25
2023-03-05T21:01:28.096Z,15.18
2023-03-05T21:03:57.241Z,14.23
2023-03-05T21:06:25.432Z,12.85
2023-03-05T21:08:52.244Z,13.63
2023-03-05T21:11:19.286Z,13.68
2023-03-05T21:13:46.029Z,13.90
2023-03-05T21:16:18.611Z,14.93
2023-03-05T21:18:45.686Z,13.68
2023-03-05T21:21:12.722Z,13.60
2023-03-05T21:23:39.530Z,16.30
2023-03-05T21:26:06.426Z,14.68
2023-03-05T21:28:33.256Z,15.73
2023-03-05T21:31:07.463Z,16.30
2023-03-05T21:33:34.884Z,14.00
2023-03-05T21:36:01.621Z,13.93
2023-03-05T21:38:30.591Z,18.52
2023-03-05T21:40:59.274Z,14.85
2023-03-05T21:43:26.961Z,16.40
2023-03-05T21:45:54.734Z,14.20
2023-03-05T21:48:22.871Z,17.67
2023-03-05T21:50:51.145Z,14.65
2023-03-05T21:53:19.710Z,14.80
2023-03-05T21:56:02.626Z,14.23
2023-03-05T21:58:31.393Z,14.25
2023-03-05T22:00:58.889Z,12.52
2023-03-05T22:03:26.642Z,14.95
2023-03-05T22:05:54.293Z,13.40
2023-03-05T22:08:21.754Z,13.60
2023-03-05T22:10:49.028Z,12.82
2023-03-05T22:13:17.696Z,15.02
2023-03-05T22:15:53.274Z,42.58
2023-03-05T22:18:26.129Z,48.83
2023-03-05T22:20:53.596Z,30.70
2023-03-05T22:23:23.277Z,17.73
2023-03-05T22:26:02.048Z,19.88
2023-03-05T22:28:29.405Z,17.58
2023-03-05T22:30:56.262Z,15.35
2023-03-05T22:33:23.362Z,15.05
2023-03-05T22:35:50.760Z,15.27
2023-03-05T22:38:18.221Z,13.57
2023-03-05T22:40:46.997Z,14.60
2023-03-05T22:43:15.085Z,13.90
2023-03-05T22:45:42.271Z,12.30
2023-03-05T22:48:12.429Z,12.93
2023-03-05T22:50:40.381Z,14.10
2023-03-05T22:53:07.734Z,13.45
2023-03-05T22:55:34.680Z,13.02
2023-03-05T22:58:01.368Z,13.38
2023-03-05T23:00:28.199Z,13.73
2023-03-05T23:02:55.280Z,12.40
2023-03-05T23:05:22.054Z,12.98
2023-03-05T23:07:49.283Z,13.93
2023-03-05T23:10:26.413Z,13.38
2023-03-05T23:12:55.939Z,11.90
2023-03-05T23:15:29.870Z,14.93
2023-03-05T23:17:56.999Z,13.75
2023-03-05T23:20:26.797Z,12.48
2023-03-05T23:22:56.052Z,13.77
2023-03-05T23:25:29.775Z,13.13
2023-03-05T23:27:58.072Z,13.30
2023-03-05T23:30:30.936Z,13.88
2023-03-05T23:33:08.251Z,12.75
2023-03-05T23:35:39.360Z,13.95
2023-03-05T23:38:09.164Z,13.50
2023-03-05T23:40:39.876Z,13.80
2023-03-05T23:43:06.879Z,13.45
2023-03-05T23:45:33.864Z,13.10
2023-03-05T23:48:01.291Z,13.02
2023-03-05T23:50:35.293Z,16.60
2023-03-05T23:53:04.505Z,16.38
2023-03-05T23:55:37.518Z,12.30
2023-03-05T23:58:04.398Z,13.90
